Flight Track Log - Related Links

Times and Time Zones

All times are in EDT time to prevent confusion due to time zone crossing. See the JBU51 flight status page for this flight to view local times or setup timezone preferences in your user account.

Time Position Orientation Groundspeed Altitude Reporting Facility
EDT Latitude Longitude Course Direction KTS MPH feet Rate Location/Type
Mon 11:42:00 AM 44.2318 -73.2296 190° South  Level FlightAware Approximate
Mon 11:43:00 AM 44.1567 -73.2663 195° South  Level FlightAware Approximate
Mon 11:43:06 AM 44.4850 -73.3364 196° South 245 282 9,700  Level Boston Center
Mon 11:44:00 AM 44.0787 -73.2955 195° South  Level FlightAware Approximate
Mon 11:44:07 AM 44.4078 -73.3583 191° South 273 314 12,800  Level Boston Center
Mon 11:45:00 AM 44.0003 -73.3222 194° South  Level FlightAware Approximate
Mon 11:45:07 AM 44.3200 -73.3831 191° South 306 352 14,600  Level Boston Center
Mon 11:46:00 AM 43.9217 -73.3483 193° South  Level FlightAware Approximate
Mon 11:46:07 AM 44.2239 -73.4106 192° South 340 391 17,300  Level Boston Center
Mon 11:47:00 AM 43.8441 -73.3792 196° South  Level FlightAware Approximate
Mon 11:47:07 AM 44.1256 -73.4436 194° South 363 418 19,700  Level Boston Center
Mon 11:48:00 AM 43.7666 -73.4102 196° South  Level FlightAware Approximate
Mon 11:48:06 AM 44.0314 -73.4997 203° Southwest 368 423 21,900  Level Boston Center
Mon 11:49:07 AM 43.9350 -73.5558 203° Southwest 375 432 24,100 1,884 Climbing Boston Center
Mon 11:50:07 AM 43.8386 -73.6144 204° Southwest 380 437 25,700 1,600 Climbing Boston Center
Mon 11:51:07 AM 43.7442 -73.6672 202° Southwest 390 449 27,300 1,150 Climbing Boston Center
Mon 11:52:07 AM 43.6436 -73.7225 202° Southwest 400 460 28,000 353 Climbing Boston Center
Mon 11:53:06 AM 43.5431 -73.7806 203° Southwest 400 460 28,000  Level Boston Center
Mon 11:54:06 AM 43.4633 -73.8244 202° Southwest 395 455 28,000  Level Boston Center
Mon 11:55:06 AM 43.3311 -73.8986 202° Southwest 395 455 28,000  Level Boston Center
Mon 11:56:06 AM 43.2200 -73.9331 193° South 400 460 28,000  Level Boston Center
Mon 11:57:07 AM 43.0972 -73.9244 177° South 421 484 28,000  Level Boston Center
Mon 11:58:07 AM 42.9767 -73.9100 175° South 429 494 28,000  Level Boston Center
Mon 11:59:06 AM 42.8578 -73.9044 178° South 434 499 28,000  Level Boston Center
Mon 12:00:07 PM 42.7392 -73.8931 176° South 434 499 28,000  Level Boston Center
Mon 12:01:06 PM 42.6142 -73.8872 178° South 440 506 28,000  Level Boston Center
Mon 12:02:19 PM 42.4850 -73.8817 178° South 432 497 28,000  Level Boston Center
Mon 12:03:19 PM 42.3622 -73.8731 177° South 432 497 28,000  Level Boston Center
Mon 12:04:18 PM 42.2644 -73.8653 177° South 442 509 28,000  Level Boston Center
Mon 12:05:19 PM 42.1206 -73.8564 177° South 442 509 28,000  Level Boston Center
Mon 12:06:18 PM 42.0081 -73.8483 177° South 424 488 28,000 -101 Level Boston Center
Mon 12:07:18 PM 41.9056 -73.8850 195° South 407 468 27,800 -893 Descending Boston Center
Mon 12:08:19 PM 41.8644 -73.9983 244° Southwest 329 379 26,200 -1,521 Descending Boston Center
Mon 12:10:51 PM 41.6892 -74.1794 218° Southwest 336 387 22,400 -1,528 Descending New York Center
Mon 12:11:51 PM 41.5844 -74.1325 161° South 352 405 20,800 -1,210 Descending New York Center
Mon 12:12:50 PM 41.4842 -74.0692 155° Southeast 376 433 20,000 -450 Descending New York Center
Mon 12:13:51 PM 41.3819 -74.0033 154° Southeast 391 450 19,900  Descending New York Center
Mon 12:14:49 PM 41.2850 -73.9683 165° South 386 444 20,000 51 Climbing New York Center
Mon 12:15:49 PM 41.2081 -74.0364 214° Southwest 304 350 20,000 -496 Level New York Center
Mon 12:16:50 PM 41.1803 -74.1342 249° West 255 293 19,000 -492 Descending New York Center
Mon 12:17:51 PM 41.1011 -74.1386 182° South 295 339 19,000  Level New York Center
Mon 12:18:50 PM 41.0000 -74.1333 178° South 324 373 19,000  Level New York TRACON
Mon 12:19:50 PM 40.9167 -74.1167 171° South 342 394 19,000 -300 Level New York TRACON
Mon 12:20:50 PM 40.8500 -74.0000 127° Southeast 364 419 18,400 -950 Descending New York TRACON
Mon 12:21:50 PM 40.8000 -73.9000 123° Southeast 362 417 17,100 -1,200 Descending New York TRACON
Mon 12:22:50 PM 40.7333 -73.8000 131° Southeast 342 394 16,000 -850 Descending New York TRACON
Mon 12:23:50 PM 40.6667 -73.7333 143° Southeast 364 419 15,400 -1,450 Descending New York TRACON
Mon 12:24:50 PM 40.5667 -73.7000 166° South 318 366 13,100 -2,200 Descending New York TRACON
Mon 12:25:50 PM 40.4833 -73.6833 171° South 291 335 11,000 -2,143 Descending New York TRACON
Mon 12:26:56 PM 40.4000 -73.7000 189° South 290 334 8,600 -2,048 Descending New York TRACON
Mon 12:27:56 PM 40.3500 -73.7667 225° Southwest 265 305 6,700 -1,350 Descending New York TRACON
Mon 12:28:56 PM 40.3333 -73.8500 255° West 237 273 5,900 -1,400 Descending New York TRACON
Mon 12:29:56 PM 40.3500 -73.9167 288° West 212 244 3,900 -1,526 Descending New York TRACON
Mon 12:30:50 PM 40.3833 -73.9667 311° West 223 257 3,000 -474 Descending New York TRACON
Mon 12:31:50 PM 40.4500 -73.9833 349° North 230 265 3,000  Level New York TRACON
Mon 12:32:50 PM 40.5000 -73.9667 14° North 232 267 3,000  Level New York TRACON
Mon 12:33:50 PM 40.5667 -73.9333 21° North 202 232 3,000 -300 Level New York TRACON
Mon 12:34:50 PM 40.6000 -73.9000 37° Northeast 207 238 2,400 -750 Descending New York TRACON
Mon 12:35:50 PM 40.6500 -73.8667 27° Northeast 161 185 1,500 -900 Descending New York TRACON
Mon 12:36:50 PM 40.6667 -73.8167 66° East 153 176 600 -900 Descending New York TRACON

Login

Don't have an account? Register now (free) for customized features, flight alerts, and more!